Time;durP1;ratioP1;P1;durP2;ratioP2;P2;SDS_P1;SDS_P2;PMS_P1;PMS_P2;Temp;Humidity;BMP_temperature;BMP_pressure;BME280_temperature;BME280_humidity;BME280_pressure;Samples;Min_cycle;Max_cycle;Signal;HPM_P1;HPM_P2
2022/07/20 18:55:32;;;;;;;4.60;1.60;;;;;;;;;;179939;19;1553108457;31
2022/07/20 18:57:57;;;;;;;13.25;7.85;;;;;;;;;;7321774;19;19982;-79
2022/07/20 19:00:22;;;;;;;13.27;8.27;;;;;;;;;;7335619;19;20410;-81
2022/07/20 19:02:48;;;;;;;13.83;8.50;;;;;;;;;;7351856;19;20042;-80
2022/07/20 19:05:13;;;;;;;14.17;8.50;;;;;;;;;;7350190;19;20007;-80
2022/07/20 19:07:38;;;;;;;14.67;8.90;;;;;;;;;;7361449;19;20791;-80
2022/07/20 19:10:03;;;;;;;10.60;7.87;;;;;;;;;;7357433;19;20010;-80
2022/07/20 19:12:28;;;;;;;14.07;8.48;;;;;;;;;;7367459;19;20227;-80
2022/07/20 19:14:54;;;;;;;15.17;7.83;;;;;;;;;;7363977;19;20010;-82
2022/07/20 19:17:19;;;;;;;13.33;8.50;;;;;;;;;;7364835;19;20429;-80
2022/07/20 19:19:44;;;;;;;14.03;8.50;;;;;;;;;;7365212;19;19998;-79
2022/07/20 19:22:09;;;;;;;13.40;7.70;;;;;;;;;;7362417;19;20243;-79
2022/07/20 19:24:35;;;;;;;13.50;8.63;;;;;;;;;;7350947;19;20451;-81
2022/07/20 19:27:00;;;;;;;14.02;8.07;;;;;;;;;;7347177;19;20584;-80
2022/07/20 19:29:25;;;;;;;14.73;8.82;;;;;;;;;;7354328;19;20007;-79
2022/07/20 19:31:50;;;;;;;12.53;7.50;;;;;;;;;;7370985;19;20011;-78
2022/07/20 19:34:15;;;;;;;14.33;7.47;;;;;;;;;;7367328;19;19998;-81
2022/07/20 19:36:41;;;;;;;11.68;6.22;;;;;;;;;;7361422;19;20576;-79
2022/07/20 19:39:07;;;;;;;10.87;6.33;;;;;;;;;;7377335;19;20002;-79
2022/07/20 19:41:32;;;;;;;11.15;6.10;;;;;;;;;;7374657;19;20427;-78
2022/07/20 19:43:58;;;;;;;10.20;5.70;;;;;;;;;;7369898;19;20015;-80
2022/07/20 19:46:23;;;;;;;10.80;6.10;;;;;;;;;;7370087;19;20133;-79
2022/07/20 19:48:48;;;;;;;9.90;5.93;;;;;;;;;;7372924;19;20007;-78
2022/07/20 19:51:13;;;;;;;10.67;5.63;;;;;;;;;;7370631;19;20747;-80
2022/07/20 19:53:38;;;;;;;8.40;4.93;;;;;;;;;;7364720;19;20007;-80
2022/07/20 19:56:04;;;;;;;8.20;5.20;;;;;;;;;;7372998;19;20251;-80
2022/07/20 19:58:29;;;;;;;8.23;4.68;;;;;;;;;;7370000;19;20511;-78
2022/07/20 20:00:54;;;;;;;7.30;4.53;;;;;;;;;;7375862;19;20002;-78
2022/07/20 20:03:20;;;;;;;7.73;4.53;;;;;;;;;;7370412;19;20570;-79
2022/07/20 20:05:45;;;;;;;9.20;5.17;;;;;;;;;;7364597;19;20006;-80
2022/07/20 20:08:11;;;;;;;8.93;5.00;;;;;;;;;;7365605;19;20519;-81
2022/07/20 20:10:36;;;;;;;8.43;4.75;;;;;;;;;;7372245;19;20239;-80
2022/07/20 20:13:02;;;;;;;7.73;4.93;;;;;;;;;;7367124;19;20419;-80
2022/07/20 20:15:27;;;;;;;7.57;4.53;;;;;;;;;;7363834;19;20020;-81
2022/07/20 20:17:52;;;;;;;8.47;4.70;;;;;;;;;;7347314;19;19995;-77
2022/07/20 20:20:17;;;;;;;9.38;5.10;;;;;;;;;;7364737;19;20272;-78
2022/07/20 20:22:42;;;;;;;10.73;4.50;;;;;;;;;;7375127;19;20002;-80
2022/07/20 20:25:08;;;;;;;9.07;5.27;;;;;;;;;;7371268;19;20264;-79
2022/07/20 20:27:33;;;;;;;8.60;4.97;;;;;;;;;;7362279;19;20437;-77
2022/07/20 20:29:58;;;;;;;6.90;4.63;;;;;;;;;;7374035;19;20768;-78
2022/07/20 20:32:23;;;;;;;8.83;5.30;;;;;;;;;;7372687;19;20643;-80
2022/07/20 20:34:49;;;;;;;11.60;5.43;;;;;;;;;;7368576;19;20463;-78
2022/07/20 20:37:14;;;;;;;9.53;5.30;;;;;;;;;;7373680;19;20111;-77
2022/07/20 20:39:39;;;;;;;9.10;5.00;;;;;;;;;;7372318;19;20006;-77
2022/07/20 20:42:04;;;;;;;10.13;5.68;;;;;;;;;;7373568;19;20287;-79
2022/07/20 20:44:29;;;;;;;8.03;4.90;;;;;;;;;;7376952;19;19995;-76
2022/07/20 20:46:55;;;;;;;8.60;4.47;;;;;;;;;;7378336;19;20098;-78
2022/07/20 20:49:20;;;;;;;9.85;5.63;;;;;;;;;;7377668;19;20244;-76
2022/07/20 20:51:45;;;;;;;7.30;4.87;;;;;;;;;;7381416;19;20003;-79
2022/07/20 20:54:10;;;;;;;7.60;4.90;;;;;;;;;;7383418;19;19998;-77
2022/07/20 20:56:36;;;;;;;11.93;5.30;;;;;;;;;;7377745;19;20836;-77
2022/07/20 20:59:01;;;;;;;8.97;4.83;;;;;;;;;;7379411;19;19998;-79
2022/07/20 21:01:27;;;;;;;8.95;4.97;;;;;;;;;;7372298;19;20226;-76
2022/07/20 21:03:53;;;;;;;10.30;6.15;;;;;;;;;;7380205;19;20011;-78
2022/07/20 21:06:21;;;;;;;9.35;5.75;;;;;;;;;;7368193;19;20018;-77
2022/07/20 21:08:46;;;;;;;11.80;5.13;;;;;;;;;;7371070;19;20007;-77
2022/07/20 21:11:11;;;;;;;8.73;5.63;;;;;;;;;;7367765;19;20382;-79
2022/07/20 21:13:37;;;;;;;9.53;5.10;;;;;;;;;;7372216;19;20260;-77
2022/07/20 21:16:02;;;;;;;8.70;5.38;;;;;;;;;;7371033;19;20271;-79
2022/07/20 21:18:27;;;;;;;11.60;5.30;;;;;;;;;;7378524;19;19995;-78
2022/07/20 21:20:52;;;;;;;11.43;5.50;;;;;;;;;;7373690;19;20011;-78
2022/07/20 21:23:17;;;;;;;11.93;5.93;;;;;;;;;;7373414;19;19995;-80
2022/07/20 21:25:43;;;;;;;10.30;5.43;;;;;;;;;;7369703;19;20369;-78
2022/07/20 21:28:08;;;;;;;8.52;5.15;;;;;;;;;;7372257;19;20372;-80
2022/07/20 21:30:33;;;;;;;11.47;6.10;;;;;;;;;;7378815;19;20467;-78
2022/07/20 21:32:58;;;;;;;11.33;5.43;;;;;;;;;;7380662;19;20011;-79
2022/07/20 21:35:24;;;;;;;10.23;5.93;;;;;;;;;;7374370;19;20002;-80
2022/07/20 21:37:49;;;;;;;8.77;5.20;;;;;;;;;;7374949;19;20008;-78
2022/07/20 21:40:14;;;;;;;8.97;5.27;;;;;;;;;;7375494;19;20031;-79
2022/07/20 21:42:39;;;;;;;8.50;5.80;;;;;;;;;;7375834;19;20255;-78
2022/07/20 21:45:05;;;;;;;10.40;5.67;;;;;;;;;;7375779;19;20254;-77
2022/07/20 21:47:30;;;;;;;9.57;5.55;;;;;;;;;;7372718;19;20289;-78
2022/07/20 21:49:55;;;;;;;8.97;5.40;;;;;;;;;;7377549;19;20011;-79
2022/07/20 21:52:20;;;;;;;10.90;6.23;;;;;;;;;;7378256;19;20014;-77
2022/07/20 21:54:46;;;;;;;9.57;5.93;;;;;;;;;;7380547;19;20316;-79
2022/07/20 21:57:11;;;;;;;10.37;5.53;;;;;;;;;;7362673;19;20025;-77
2022/07/20 21:59:36;;;;;;;11.70;6.17;;;;;;;;;;7370372;19;19999;-79
2022/07/20 22:02:01;;;;;;;9.50;5.50;;;;;;;;;;7373384;19;20010;-77
2022/07/20 22:04:26;;;;;;;8.43;6.00;;;;;;;;;;7354068;19;20991;-77
2022/07/20 22:06:51;;;;;;;10.20;5.47;;;;;;;;;;7376079;19;20288;-78
2022/07/20 22:09:17;;;;;;;10.27;5.75;;;;;;;;;;7333549;19;20499;-78
2022/07/20 22:11:42;;;;;;;9.25;5.68;;;;;;;;;;7348244;19;20049;-79
2022/07/20 22:14:07;;;;;;;9.43;5.70;;;;;;;;;;7363781;19;19999;-80
2022/07/20 22:16:32;;;;;;;9.43;6.32;;;;;;;;;;7374721;19;20007;-78
2022/07/20 22:18:58;;;;;;;11.20;6.18;;;;;;;;;;7347979;19;20018;-80
2022/07/20 22:21:23;;;;;;;10.20;6.25;;;;;;;;;;7355727;19;20451;-78
2022/07/20 22:23:48;;;;;;;13.30;6.28;;;;;;;;;;7378522;19;20018;-77
2022/07/20 22:26:14;;;;;;;11.98;6.35;;;;;;;;;;7369736;19;20070;-77
2022/07/20 22:28:39;;;;;;;11.65;6.07;;;;;;;;;;7372491;19;20021;-78
2022/07/20 22:31:04;;;;;;;11.70;6.10;;;;;;;;;;7375257;19;20035;-78
2022/07/20 22:33:29;;;;;;;9.67;5.53;;;;;;;;;;7368092;19;20224;-78
2022/07/20 22:35:54;;;;;;;10.57;5.93;;;;;;;;;;7378032;19;20019;-78
2022/07/20 22:38:20;;;;;;;12.30;6.47;;;;;;;;;;7378342;19;20478;-81
2022/07/20 22:40:45;;;;;;;11.77;6.37;;;;;;;;;;7375204;19;20017;-77
2022/07/20 22:43:10;;;;;;;10.00;5.70;;;;;;;;;;7365773;19;20224;-77
2022/07/20 22:45:35;;;;;;;9.67;5.80;;;;;;;;;;7374263;19;20399;-77
2022/07/20 22:48:04;;;;;;;8.97;5.67;;;;;;;;;;7374778;19;20019;-76
2022/07/20 22:50:29;;;;;;;11.68;6.10;;;;;;;;;;7377960;19;20557;-77
2022/07/20 22:52:54;;;;;;;9.60;5.87;;;;;;;;;;7374169;19;20017;-77
2022/07/20 22:55:19;;;;;;;10.33;6.13;;;;;;;;;;7374705;19;20048;-81
2022/07/20 22:57:46;;;;;;;10.00;5.88;;;;;;;;;;7372500;19;20018;-79
2022/07/20 23:00:13;;;;;;;10.07;5.75;;;;;;;;;;7376856;19;20026;-77
2022/07/20 23:02:39;;;;;;;9.90;5.70;;;;;;;;;;7366244;19;20010;-80
2022/07/20 23:05:05;;;;;;;10.15;5.97;;;;;;;;;;7375588;19;20014;-78
2022/07/20 23:07:30;;;;;;;9.93;6.00;;;;;;;;;;7374495;19;20003;-77
2022/07/20 23:09:56;;;;;;;10.30;5.47;;;;;;;;;;7375282;19;20014;-77
2022/07/20 23:12:21;;;;;;;10.13;5.93;;;;;;;;;;7376134;19;20031;-78
2022/07/20 23:14:47;;;;;;;9.63;5.35;;;;;;;;;;7374830;19;20034;-80
2022/07/20 23:17:12;;;;;;;11.70;5.85;;;;;;;;;;7374537;19;20022;-80
2022/07/20 23:19:37;;;;;;;8.52;5.15;;;;;;;;;;7374514;19;20557;-79
2022/07/20 23:22:02;;;;;;;12.87;5.50;;;;;;;;;;7374934;19;20056;-78
2022/07/20 23:24:28;;;;;;;9.98;5.80;;;;;;;;;;7372626;19;20259;-80
2022/07/20 23:26:53;;;;;;;8.20;5.20;;;;;;;;;;7370705;19;20010;-81
2022/07/20 23:29:18;;;;;;;7.60;5.30;;;;;;;;;;7357203;19;20244;-78
2022/07/20 23:31:43;;;;;;;10.17;5.90;;;;;;;;;;7370834;19;20018;-79
2022/07/20 23:34:09;;;;;;;11.40;6.57;;;;;;;;;;7369853;19;20309;-81
2022/07/20 23:36:34;;;;;;;10.20;6.20;;;;;;;;;;7366252;19;20450;-81
2022/07/20 23:38:59;;;;;;;11.93;6.60;;;;;;;;;;7370713;19;20853;-81
2022/07/20 23:41:24;;;;;;;11.10;6.03;;;;;;;;;;7373312;19;21134;-79
2022/07/20 23:43:49;;;;;;;10.03;6.53;;;;;;;;;;7371688;19;20032;-79
2022/07/20 23:46:15;;;;;;;10.73;5.75;;;;;;;;;;7367124;19;20442;-78
2022/07/20 23:48:40;;;;;;;9.80;6.23;;;;;;;;;;7370993;19;20027;-79
2022/07/20 23:51:05;;;;;;;9.33;6.00;;;;;;;;;;7371611;19;20743;-79
2022/07/20 23:53:30;;;;;;;10.18;6.90;;;;;;;;;;7373931;19;20240;-79
2022/07/20 23:56:00;;;;;;;12.43;6.38;;;;;;;;;;7378307;19;20034;-79
2022/07/20 23:58:25;;;;;;;9.52;5.85;;;;;;;;;;7374400;19;20517;-81
